createdAt,value
2023-04-03T00:01:21.021Z,24.57
2023-04-03T00:04:25.188Z,27.60
2023-04-03T00:07:30.987Z,24.53
2023-04-03T00:10:35.337Z,23.80
2023-04-03T00:13:40.949Z,22.73
2023-04-03T00:16:45.178Z,23.23
2023-04-03T00:19:49.408Z,21.43
2023-04-03T00:22:55.000Z,22.20
2023-04-03T00:25:58.860Z,21.00
2023-04-03T00:29:02.620Z,20.73
2023-04-03T00:32:06.443Z,20.53
2023-04-03T00:35:11.456Z,20.23
2023-04-03T00:38:16.358Z,19.23
2023-04-03T00:41:19.959Z,20.17
2023-04-03T00:44:25.835Z,19.30
2023-04-03T00:47:30.309Z,18.30
2023-04-03T00:50:35.502Z,16.77
2023-04-03T00:53:45.962Z,16.50
2023-04-03T00:56:49.906Z,16.30
2023-04-03T00:59:58.225Z,16.40
2023-04-03T01:03:02.651Z,15.67
2023-04-03T01:06:07.398Z,15.03
2023-04-03T01:09:12.658Z,14.90
2023-04-03T01:12:17.965Z,15.50
2023-04-03T01:15:24.203Z,13.27
2023-04-03T01:18:28.925Z,13.63
2023-04-03T01:21:56.991Z,14.50
2023-04-03T01:25:02.102Z,12.80
2023-04-03T01:28:06.635Z,12.63
2023-04-03T01:31:18.427Z,12.07
2023-04-03T01:34:24.015Z,12.93
2023-04-03T01:37:27.623Z,12.20
2023-04-03T01:40:32.447Z,11.50
2023-04-03T01:43:36.151Z,12.53
2023-04-03T01:46:40.045Z,11.23
2023-04-03T01:49:45.091Z,10.57
2023-04-03T01:52:48.916Z,10.60
2023-04-03T01:55:52.276Z,10.47
2023-04-03T01:58:55.877Z,9.80
2023-04-03T02:01:59.556Z,9.63
2023-04-03T02:05:04.793Z,9.13
2023-04-03T02:08:08.855Z,9.50
2023-04-03T02:11:12.508Z,9.60
2023-04-03T02:14:16.221Z,7.80
2023-04-03T02:17:19.851Z,10.10
2023-04-03T02:20:25.126Z,7.70
2023-04-03T02:23:28.710Z,7.73
2023-04-03T02:26:32.367Z,7.60
2023-04-03T02:29:35.977Z,7.40
2023-04-03T02:32:39.843Z,7.37
2023-04-03T02:35:44.705Z,7.30
2023-04-03T02:38:49.459Z,8.00
2023-04-03T02:41:53.225Z,7.50
2023-04-03T02:44:58.738Z,7.50
2023-04-03T02:48:03.794Z,8.33
2023-04-03T02:51:09.219Z,8.30
2023-04-03T02:54:13.010Z,10.20
2023-04-03T02:57:16.876Z,9.17
2023-04-03T03:00:21.483Z,10.30
2023-04-03T03:03:25.632Z,10.10
2023-04-03T03:06:30.985Z,10.60
2023-04-03T03:09:34.687Z,12.87
2023-04-03T03:12:38.640Z,12.43
2023-04-03T03:15:42.236Z,12.60
2023-04-03T03:18:46.068Z,12.77
2023-04-03T03:21:51.487Z,7.90
2023-04-03T03:24:54.988Z,7.63
2023-04-03T03:27:58.719Z,6.47
2023-04-03T03:31:02.407Z,7.50
2023-04-03T03:34:06.196Z,11.37
2023-04-03T03:37:11.445Z,13.20
2023-04-03T03:40:15.731Z,15.07
2023-04-03T03:43:21.940Z,16.97
2023-04-03T03:46:25.827Z,14.07
2023-04-03T03:49:29.416Z,14.70
2023-04-03T03:52:34.552Z,17.77
2023-04-03T03:55:38.422Z,13.93
2023-04-03T03:58:41.902Z,11.43
2023-04-03T04:01:45.887Z,10.70
2023-04-03T04:04:49.560Z,8.87
2023-04-03T04:07:54.311Z,6.70
2023-04-03T04:10:57.722Z,6.90
2023-04-03T04:14:01.614Z,7.60
2023-04-03T04:17:04.771Z,10.20
2023-04-03T04:20:09.825Z,6.60
2023-04-03T04:23:14.907Z,6.90
2023-04-03T04:26:18.613Z,7.37
2023-04-03T04:29:22.315Z,8.13
2023-04-03T04:32:26.120Z,6.23
2023-04-03T04:35:33.380Z,5.90
2023-04-03T04:38:39.850Z,5.93
2023-04-03T04:41:43.521Z,6.77
2023-04-03T04:44:47.225Z,7.70
2023-04-03T04:47:52.864Z,4.90
2023-04-03T04:50:56.417Z,5.10
2023-04-03T04:54:01.610Z,5.50
2023-04-03T04:57:05.323Z,7.43
2023-04-03T05:00:10.289Z,6.10
2023-04-03T05:03:13.848Z,4.90
2023-04-03T05:06:17.601Z,5.40
2023-04-03T05:09:23.567Z,4.83
2023-04-03T05:12:27.546Z,8.77
2023-04-03T05:15:31.196Z,5.63
2023-04-03T05:18:35.380Z,5.10
2023-04-03T05:21:39.092Z,4.73
2023-04-03T05:24:44.367Z,5.07
2023-04-03T05:27:48.149Z,6.10
2023-04-03T05:30:56.894Z,5.63
2023-04-03T05:34:01.213Z,4.90
2023-04-03T05:37:06.484Z,5.20
2023-04-03T05:40:12.930Z,5.30
2023-04-03T05:43:16.954Z,5.30
2023-04-03T05:46:23.336Z,5.63
2023-04-03T05:49:27.380Z,5.77
2023-04-03T05:52:34.712Z,7.43
2023-04-03T05:55:39.920Z,9.43
2023-04-03T05:58:43.582Z,9.63
2023-04-03T06:01:47.190Z,10.37
2023-04-03T06:04:52.053Z,10.87
2023-04-03T06:07:56.081Z,11.43
2023-04-03T06:11:03.283Z,11.70
2023-04-03T06:14:06.864Z,11.40
2023-04-03T06:17:11.117Z,11.20
2023-04-03T06:20:15.815Z,10.87
2023-04-03T06:23:19.476Z,10.87
2023-04-03T06:26:24.691Z,11.03
2023-04-03T06:29:28.935Z,11.80
2023-04-03T06:32:32.740Z,10.63
2023-04-03T06:35:36.833Z,10.93
2023-04-03T06:38:40.781Z,11.07
2023-04-03T06:41:46.501Z,10.87
2023-04-03T06:44:50.706Z,10.20
2023-04-03T06:47:54.666Z,10.60
2023-04-03T06:50:58.367Z,10.40
2023-04-03T06:54:02.572Z,10.87
2023-04-03T06:57:07.990Z,10.20
2023-04-03T07:00:13.318Z,12.47
2023-04-03T07:03:17.449Z,12.10
2023-04-03T07:06:21.923Z,11.80
2023-04-03T07:09:25.968Z,11.03
2023-04-03T07:12:31.274Z,11.90
2023-04-03T07:15:35.111Z,11.60
2023-04-03T07:18:39.232Z,11.90
2023-04-03T07:21:43.239Z,11.30
2023-04-03T07:24:47.432Z,11.50
2023-04-03T07:27:52.600Z,11.43
2023-04-03T07:31:02.314Z,10.20
2023-04-03T07:34:06.419Z,9.80
2023-04-03T07:37:10.521Z,10.67
2023-04-03T07:40:14.841Z,10.40
2023-04-03T07:43:21.338Z,10.23
2023-04-03T07:46:25.225Z,9.40
2023-04-03T07:49:29.005Z,9.53
2023-04-03T07:52:32.692Z,9.40
2023-04-03T07:55:41.768Z,9.77
2023-04-03T07:58:46.687Z,10.03
2023-04-03T08:01:50.451Z,8.90
2023-04-03T08:04:54.334Z,9.63
2023-04-03T08:07:58.157Z,10.80
2023-04-03T08:11:03.614Z,8.70
2023-04-03T08:14:08.816Z,9.80
2023-04-03T08:17:13.916Z,10.10
2023-04-03T08:20:17.736Z,10.17
2023-04-03T08:23:21.480Z,8.63
2023-04-03T08:26:25.218Z,9.17
2023-04-03T08:29:31.641Z,9.53
2023-04-03T08:32:36.413Z,8.80
2023-04-03T08:35:43.777Z,8.57
2023-04-03T08:38:47.638Z,9.20
2023-04-03T08:41:51.274Z,8.93
2023-04-03T08:45:04.558Z,8.60
2023-04-03T08:48:11.394Z,8.90
2023-04-03T08:51:17.560Z,9.30
2023-04-03T08:54:32.200Z,8.83
2023-04-03T08:57:39.679Z,8.10
2023-04-03T09:00:48.813Z,7.63
2023-04-03T09:03:52.723Z,8.03
2023-04-03T09:07:00.402Z,7.53
2023-04-03T09:10:04.683Z,7.80
2023-04-03T09:13:15.933Z,7.73
2023-04-03T09:16:38.742Z,7.33
2023-04-03T09:19:50.584Z,7.90
2023-04-03T09:22:55.538Z,8.20
2023-04-03T09:26:06.237Z,7.63
2023-04-03T09:29:11.285Z,7.03
2023-04-03T09:32:29.878Z,7.60
2023-04-03T09:35:47.348Z,7.50
2023-04-03T09:39:07.081Z,7.40
2023-04-03T09:42:21.710Z,7.60
2023-04-03T09:45:28.692Z,7.10
2023-04-03T09:48:33.828Z,7.70
2023-04-03T09:51:37.683Z,6.87
2023-04-03T09:54:42.316Z,7.13
2023-04-03T09:57:46.497Z,7.20
2023-04-03T10:00:57.240Z,6.60
2023-04-03T10:04:14.416Z,6.40
2023-04-03T10:07:36.213Z,6.70
2023-04-03T10:10:40.564Z,6.53
2023-04-03T10:14:00.726Z,6.77
2023-04-03T10:17:20.884Z,6.30
2023-04-03T10:20:36.758Z,6.47
2023-04-03T10:23:47.032Z,6.63
2023-04-03T10:27:00.378Z,6.30
2023-04-03T10:30:14.172Z,6.97
2023-04-03T10:33:40.230Z,6.50
2023-04-03T10:36:56.287Z,6.13
2023-04-03T10:40:05.028Z,5.97
2023-04-03T10:43:16.852Z,6.37
2023-04-03T10:46:25.927Z,6.53
2023-04-03T10:49:57.139Z,6.93
2023-04-03T10:53:10.571Z,6.10
2023-04-03T10:56:23.207Z,6.37
2023-04-03T10:59:32.968Z,6.20
2023-04-03T11:02:45.034Z,5.53
2023-04-03T11:05:52.566Z,5.40
2023-04-03T11:09:04.573Z,5.00
2023-04-03T11:12:15.251Z,5.47
2023-04-03T11:15:22.009Z,5.23
2023-04-03T11:18:29.868Z,5.13
2023-04-03T11:21:40.383Z,5.10
2023-04-03T11:24:59.985Z,5.13
2023-04-03T11:28:06.084Z,4.80
2023-04-03T11:31:22.198Z,5.13
2023-04-03T11:34:37.552Z,5.00
2023-04-03T11:37:45.147Z,4.97
2023-04-03T11:40:51.479Z,5.10
2023-04-03T11:44:06.180Z,4.60
2023-04-03T11:47:11.471Z,4.93
2023-04-03T11:50:49.055Z,4.70
2023-04-03T11:53:57.645Z,4.20
2023-04-03T11:58:02.802Z,4.87
2023-04-03T12:01:24.063Z,4.60
2023-04-03T12:04:48.397Z,4.50
2023-04-03T12:08:29.596Z,4.13
2023-04-03T12:11:39.532Z,4.33
2023-04-03T12:14:55.189Z,4.20
2023-04-03T12:18:09.126Z,4.23
2023-04-03T12:21:15.057Z,4.47
2023-04-03T12:24:29.832Z,4.60
2023-04-03T12:27:46.597Z,4.57
2023-04-03T12:30:52.902Z,4.33
2023-04-03T12:34:22.707Z,4.20
2023-04-03T12:37:47.969Z,4.40
2023-04-03T12:40:59.677Z,4.53
2023-04-03T12:44:38.302Z,4.00
2023-04-03T12:47:45.806Z,4.40
2023-04-03T12:50:51.216Z,4.00
2023-04-03T12:54:06.332Z,4.07
2023-04-03T12:57:23.350Z,4.47
2023-04-03T13:00:35.437Z,4.40
2023-04-03T13:03:49.218Z,3.90
2023-04-03T13:06:53.866Z,4.10
2023-04-03T13:10:14.702Z,3.83
2023-04-03T13:13:18.540Z,3.90
2023-04-03T13:16:22.040Z,4.20
2023-04-03T13:19:29.642Z,4.03
2023-04-03T13:22:43.649Z,4.13
2023-04-03T13:25:49.329Z,4.03
2023-04-03T13:28:53.970Z,3.70
2023-04-03T13:31:59.016Z,3.83
2023-04-03T13:35:17.965Z,3.93
2023-04-03T13:38:26.967Z,3.90
2023-04-03T13:41:33.977Z,4.17
2023-04-03T13:44:40.789Z,3.77
2023-04-03T13:47:45.668Z,4.07
2023-04-03T13:51:19.679Z,3.93
2023-04-03T13:54:26.118Z,3.70
2023-04-03T13:57:30.413Z,3.30
2023-04-03T14:00:40.421Z,3.40
2023-04-03T14:03:47.620Z,3.70
2023-04-03T14:06:52.730Z,4.00
2023-04-03T14:09:56.642Z,3.40
2023-04-03T14:13:00.069Z,3.50
2023-04-03T14:16:15.167Z,3.83
2023-04-03T14:19:25.540Z,3.80
2023-04-03T14:22:32.576Z,4.07
2023-04-03T14:25:36.153Z,3.17
2023-04-03T14:28:44.128Z,3.10
2023-04-03T14:31:53.409Z,4.23
2023-04-03T14:35:02.210Z,4.30
2023-04-03T14:38:15.278Z,3.17
2023-04-03T14:41:20.808Z,3.30
2023-04-03T14:44:24.355Z,3.00
2023-04-03T14:47:31.742Z,4.30
2023-04-03T14:50:35.676Z,3.23
2023-04-03T14:53:40.630Z,4.37
2023-04-03T14:56:45.652Z,3.37
2023-04-03T14:59:49.208Z,4.10
2023-04-03T15:02:52.652Z,4.73
2023-04-03T15:05:57.161Z,5.60
2023-04-03T15:09:01.866Z,4.33
2023-04-03T15:12:05.542Z,3.17
2023-04-03T15:15:10.012Z,3.50
2023-04-03T15:18:19.225Z,4.10
2023-04-03T15:21:22.505Z,3.83
2023-04-03T15:24:27.308Z,3.77
2023-04-03T15:27:30.630Z,3.67
2023-04-03T15:30:34.090Z,3.10
2023-04-03T15:33:41.063Z,7.47
2023-04-03T15:36:50.022Z,8.07
2023-04-03T15:39:54.791Z,11.23
2023-04-03T15:42:58.841Z,17.20
2023-04-03T15:46:03.091Z,20.43
2023-04-03T15:49:06.758Z,26.20
2023-04-03T15:52:10.008Z,38.07
2023-04-03T15:55:14.673Z,32.90
2023-04-03T15:58:17.909Z,36.77
2023-04-03T16:01:21.784Z,39.33
2023-04-03T16:04:25.375Z,41.07
2023-04-03T16:07:29.001Z,41.17
2023-04-03T16:10:33.854Z,40.93
2023-04-03T16:13:37.226Z,42.57
2023-04-03T16:16:40.938Z,39.93
2023-04-03T16:19:44.565Z,39.97
2023-04-03T16:22:48.191Z,36.60
2023-04-03T16:25:53.143Z,36.43
2023-04-03T16:28:56.865Z,36.73
2023-04-03T16:32:00.972Z,35.00
2023-04-03T16:35:04.336Z,34.20
2023-04-03T16:38:07.655Z,30.93
2023-04-03T16:41:12.754Z,30.77
2023-04-03T16:44:16.081Z,30.80
2023-04-03T16:47:20.895Z,30.17
2023-04-03T16:50:24.542Z,28.20
2023-04-03T16:53:28.111Z,28.23
2023-04-03T16:56:33.408Z,26.80
2023-04-03T16:59:38.742Z,24.57
2023-04-03T17:02:42.707Z,24.40
2023-04-03T17:05:50.063Z,22.97
2023-04-03T17:08:54.476Z,22.77
2023-04-03T17:11:59.238Z,22.83
2023-04-03T17:15:02.582Z,20.67
2023-04-03T17:18:06.285Z,23.80
2023-04-03T17:21:09.957Z,20.77
2023-04-03T17:24:15.633Z,20.10
2023-04-03T17:27:20.316Z,19.57
2023-04-03T17:30:24.725Z,18.93
2023-04-03T17:33:29.269Z,19.60
2023-04-03T17:36:34.037Z,18.13
2023-04-03T17:39:37.411Z,18.00
2023-04-03T17:42:42.390Z,18.60
2023-04-03T17:45:45.662Z,17.33
2023-04-03T17:48:49.254Z,17.10
2023-04-03T17:51:53.908Z,15.63
2023-04-03T17:54:57.374Z,15.40
2023-04-03T17:58:02.194Z,17.40
2023-04-03T18:01:13.278Z,15.40
2023-04-03T18:04:16.961Z,15.43
2023-04-03T18:07:20.634Z,15.63
2023-04-03T18:10:24.079Z,14.63
2023-04-03T18:13:29.677Z,15.43
2023-04-03T18:16:33.870Z,14.80
2023-04-03T18:19:37.523Z,13.20
2023-04-03T18:22:40.898Z,13.33
2023-04-03T18:25:44.974Z,14.23
2023-04-03T18:28:55.577Z,13.90
2023-04-03T18:31:59.812Z,12.50
2023-04-03T18:35:03.389Z,14.40
2023-04-03T18:38:06.997Z,13.07
2023-04-03T18:41:10.750Z,11.50
2023-04-03T18:44:21.194Z,13.07
2023-04-03T18:47:24.605Z,12.33
2023-04-03T18:50:36.699Z,9.93
2023-04-03T18:56:49.145Z,10.00
2023-04-03T18:59:56.690Z,9.97
2023-04-03T19:03:00.503Z,8.10
2023-04-03T19:06:04.532Z,9.03
2023-04-03T19:09:08.591Z,8.30
2023-04-03T19:12:11.697Z,8.53
2023-04-03T19:15:17.096Z,9.73
2023-04-03T19:18:20.830Z,8.23
2023-04-03T19:21:23.928Z,7.70
2023-04-03T19:24:27.165Z,7.17
2023-04-03T19:27:31.131Z,6.93
2023-04-03T19:30:35.840Z,7.60
2023-04-03T19:33:40.918Z,6.17
2023-04-03T19:36:44.297Z,7.30
2023-04-03T19:39:47.512Z,6.93
2023-04-03T19:42:50.869Z,7.30
2023-04-03T19:45:55.581Z,6.30
2023-04-03T19:48:59.107Z,6.17
2023-04-03T19:52:02.215Z,6.23
2023-04-03T19:55:05.621Z,6.70
2023-04-03T19:58:08.987Z,6.00
2023-04-03T20:01:13.792Z,7.37
2023-04-03T20:04:17.147Z,6.40
2023-04-03T20:07:20.575Z,6.07
2023-04-03T20:10:24.257Z,6.07
2023-04-03T20:13:27.584Z,6.90
2023-04-03T20:16:32.284Z,6.80
2023-04-03T20:19:35.612Z,6.03
2023-04-03T20:22:40.505Z,6.37
2023-04-03T20:25:54.098Z,6.80
2023-04-03T20:29:03.532Z,5.70
2023-04-03T20:32:10.610Z,5.17
2023-04-03T20:35:14.007Z,5.73
2023-04-03T20:38:17.749Z,5.83
2023-04-03T20:41:21.398Z,5.50
2023-04-03T20:44:26.520Z,5.70
2023-04-03T20:47:31.845Z,6.37
2023-04-03T20:50:36.296Z,5.50
2023-04-03T20:53:39.588Z,6.33
2023-04-03T20:56:42.804Z,4.87
2023-04-03T20:59:46.224Z,5.53
2023-04-03T21:02:51.523Z,5.00
2023-04-03T21:05:59.845Z,5.00
2023-04-03T21:09:39.875Z,4.97
2023-04-03T21:13:21.083Z,4.70
2023-04-03T21:16:23.846Z,5.00
2023-04-03T21:19:28.482Z,5.50
2023-04-03T21:22:31.595Z,5.30
2023-04-03T21:25:35.066Z,4.77
2023-04-03T21:28:38.380Z,5.10
2023-04-03T21:31:53.437Z,4.93
2023-04-03T21:34:58.255Z,4.30
2023-04-03T21:38:01.468Z,5.10
2023-04-03T21:41:04.870Z,4.87
2023-04-03T21:44:08.019Z,5.90
2023-04-03T21:47:11.654Z,5.57
2023-04-03T21:50:16.696Z,6.37
2023-04-03T21:53:20.633Z,6.70
2023-04-03T21:56:24.641Z,7.50
2023-04-03T21:59:27.870Z,8.27
2023-04-03T22:02:33.812Z,10.20
2023-04-03T22:05:38.419Z,10.03
2023-04-03T22:08:42.124Z,10.13
2023-04-03T22:11:46.020Z,11.77
2023-04-03T22:14:49.493Z,13.67
2023-04-03T22:17:52.652Z,14.97
2023-04-03T22:20:57.578Z,15.80
2023-04-03T22:24:00.986Z,16.13
2023-04-03T22:27:04.167Z,16.50
2023-04-03T22:30:08.642Z,19.03
2023-04-03T22:33:12.036Z,19.13
2023-04-03T22:36:16.517Z,21.57
2023-04-03T22:39:19.546Z,23.50
2023-04-03T22:42:22.753Z,22.90
2023-04-03T22:45:26.520Z,24.50
2023-04-03T22:48:30.859Z,26.13
2023-04-03T22:51:35.312Z,25.13
2023-04-03T22:54:38.371Z,27.00
2023-04-03T22:57:41.481Z,29.40
2023-04-03T23:00:44.670Z,29.40
2023-04-03T23:03:48.080Z,30.03
2023-04-03T23:06:52.628Z,29.93
2023-04-03T23:09:55.812Z,30.73
2023-04-03T23:12:58.898Z,32.47
2023-04-03T23:16:02.842Z,33.83
2023-04-03T23:19:05.944Z,34.73
2023-04-03T23:22:11.899Z,35.20
2023-04-03T23:25:15.269Z,33.87
2023-04-03T23:28:18.766Z,35.80
2023-04-03T23:31:22.001Z,35.00
2023-04-03T23:34:25.186Z,37.40
2023-04-03T23:37:29.828Z,35.57
2023-04-03T23:40:32.998Z,38.63
2023-04-03T23:43:36.456Z,35.17
2023-04-03T23:46:39.682Z,33.97
2023-04-03T23:49:42.892Z,35.00
2023-04-03T23:52:47.668Z,33.90
2023-04-03T23:55:51.048Z,32.97
2023-04-03T23:58:54.426Z,31.83
